createdAt,value
2023-04-04T00:02:19.838Z,42.98
2023-04-04T00:04:48.320Z,42.84
2023-04-04T00:07:18.079Z,42.95
2023-04-04T00:09:46.327Z,42.60
2023-04-04T00:12:15.219Z,42.38
2023-04-04T00:14:43.558Z,42.85
2023-04-04T00:17:11.829Z,42.65
2023-04-04T00:19:40.141Z,42.81
2023-04-04T00:22:08.491Z,43.56
2023-04-04T00:24:38.473Z,43.28
2023-04-04T00:27:06.798Z,43.42
2023-04-04T00:29:35.354Z,43.00
2023-04-04T00:32:03.807Z,43.27
2023-04-04T00:34:32.109Z,43.13
2023-04-04T00:37:00.360Z,42.84
2023-04-04T00:39:28.652Z,43.71
2023-04-04T00:41:58.410Z,43.26
2023-04-04T00:44:26.761Z,43.23
2023-04-04T00:46:55.134Z,43.44
2023-04-04T00:49:23.451Z,42.99
2023-04-04T00:51:51.845Z,43.14
2023-04-04T00:54:20.179Z,42.72
2023-04-04T00:56:48.659Z,43.59
2023-04-04T00:59:18.424Z,43.27
2023-04-04T01:01:46.997Z,43.32
2023-04-04T01:04:15.592Z,43.22
2023-04-04T01:06:44.179Z,43.30
2023-04-04T01:09:12.945Z,43.77
2023-04-04T01:11:41.462Z,43.32
2023-04-04T01:14:09.742Z,43.27
2023-04-04T01:16:39.815Z,43.53
2023-04-04T01:19:10.881Z,43.72
2023-04-04T01:21:39.992Z,44.23
2023-04-04T01:24:09.696Z,43.57
2023-04-04T01:26:39.566Z,44.12
2023-04-04T01:29:07.893Z,44.12
2023-04-04T01:31:38.954Z,44.02
2023-04-04T01:34:13.092Z,44.34
2023-04-04T01:36:44.752Z,43.95
2023-04-04T01:39:21.525Z,44.40
2023-04-04T01:41:51.699Z,43.92
2023-04-04T01:44:20.117Z,44.40
2023-04-04T01:46:48.442Z,44.73
2023-04-04T01:49:16.802Z,45.01
2023-04-04T01:51:46.510Z,44.65
2023-04-04T01:54:15.060Z,44.94
2023-04-04T01:56:43.447Z,44.50
2023-04-04T01:59:13.286Z,44.45
2023-04-04T02:01:41.771Z,44.52
2023-04-04T02:04:12.540Z,45.23
2023-04-04T02:06:41.516Z,45.07
2023-04-04T02:09:09.921Z,44.78
2023-04-04T02:11:39.103Z,45.12
2023-04-04T02:14:07.467Z,44.56
2023-04-04T02:16:37.465Z,45.04
2023-04-04T02:19:05.734Z,45.67
2023-04-04T02:21:34.028Z,45.85
2023-04-04T02:24:02.388Z,45.64
2023-04-04T02:26:30.711Z,45.71
2023-04-04T02:28:59.014Z,45.03
2023-04-04T02:31:27.536Z,45.90
2023-04-04T02:33:57.686Z,45.42
2023-04-04T02:36:26.014Z,45.24
2023-04-04T02:38:54.402Z,45.94
2023-04-04T02:41:23.356Z,45.51
2023-04-04T02:43:51.689Z,45.26
2023-04-04T02:46:21.972Z,45.17
2023-04-04T02:48:50.547Z,44.85
2023-04-04T02:51:20.169Z,45.59
2023-04-04T02:53:48.495Z,45.11
2023-04-04T02:56:16.919Z,45.76
2023-04-04T02:58:45.649Z,45.57
2023-04-04T03:01:14.077Z,45.88
2023-04-04T03:03:42.510Z,46.19
2023-04-04T03:06:11.531Z,45.36
2023-04-04T03:08:41.398Z,45.47
2023-04-04T03:11:09.703Z,45.08
2023-04-04T03:13:38.474Z,44.77
2023-04-04T03:16:07.677Z,44.78
2023-04-04T03:18:36.016Z,44.69
2023-04-04T03:21:04.344Z,44.78
2023-04-04T03:23:32.768Z,44.61
2023-04-04T03:26:02.616Z,44.33
2023-04-04T03:28:31.170Z,44.25
2023-04-04T03:31:04.693Z,44.64
2023-04-04T03:33:33.935Z,44.40
2023-04-04T03:36:02.262Z,45.06
2023-04-04T03:38:30.668Z,44.73
2023-04-04T03:41:07.389Z,44.43
2023-04-04T03:43:36.060Z,44.71
2023-04-04T03:46:05.124Z,44.78
2023-04-04T03:48:33.671Z,45.00
2023-04-04T03:51:04.468Z,44.37
2023-04-04T03:53:33.127Z,44.68
2023-04-04T03:56:01.551Z,44.66
2023-04-04T03:58:31.445Z,44.90
2023-04-04T04:00:59.726Z,43.91
2023-04-04T04:03:28.182Z,44.18
2023-04-04T04:05:56.710Z,44.05
2023-04-04T04:08:25.361Z,44.62
2023-04-04T04:10:54.566Z,44.61
2023-04-04T04:13:23.021Z,44.29
2023-04-04T04:15:52.803Z,44.66
2023-04-04T04:18:21.325Z,44.64
2023-04-04T04:20:49.752Z,44.37
2023-04-04T04:23:17.994Z,44.32
2023-04-04T04:25:49.026Z,44.68
2023-04-04T04:28:17.624Z,44.37
2023-04-04T04:30:46.299Z,44.41
2023-04-04T04:33:15.977Z,44.25
2023-04-04T04:35:44.353Z,43.92
2023-04-04T04:38:12.718Z,43.71
2023-04-04T04:40:41.294Z,44.17
2023-04-04T04:43:09.833Z,43.51
2023-04-04T04:45:38.318Z,43.33
2023-04-04T04:48:07.182Z,43.69
2023-04-04T04:50:37.133Z,44.16
2023-04-04T04:53:05.415Z,43.78
2023-04-04T04:55:33.656Z,44.17
2023-04-04T04:58:02.053Z,44.79
2023-04-04T05:00:30.352Z,44.66
2023-04-04T05:03:00.427Z,45.13
2023-04-04T05:05:28.983Z,45.98
2023-04-04T05:07:58.590Z,46.28
2023-04-04T05:10:26.824Z,45.01
2023-04-04T05:12:55.083Z,44.14
2023-04-04T05:15:23.338Z,43.53
2023-04-04T05:17:51.593Z,43.33
2023-04-04T05:20:19.917Z,43.73
2023-04-04T05:22:50.298Z,44.99
2023-04-04T05:25:21.265Z,45.04
2023-04-04T05:27:49.805Z,45.08
2023-04-04T05:30:18.086Z,44.69
2023-04-04T05:32:46.847Z,45.52
2023-04-04T05:35:15.214Z,43.78
2023-04-04T05:37:43.570Z,44.65
2023-04-04T05:40:12.832Z,44.40
2023-04-04T05:42:42.628Z,43.73
2023-04-04T05:45:11.956Z,43.56
2023-04-04T05:47:44.783Z,44.26
2023-04-04T05:50:13.093Z,44.29
2023-04-04T05:52:41.320Z,44.09
2023-04-04T05:55:10.013Z,44.71
2023-04-04T05:57:38.274Z,44.19
2023-04-04T06:00:10.450Z,43.74
2023-04-04T06:02:38.943Z,42.83
2023-04-04T06:05:08.502Z,43.80
2023-04-04T06:07:36.746Z,43.88
2023-04-04T06:10:05.638Z,43.92
2023-04-04T06:12:33.998Z,43.75
2023-04-04T06:15:02.259Z,43.30
2023-04-04T06:17:32.004Z,43.22
2023-04-04T06:20:00.358Z,42.73
2023-04-04T06:22:28.942Z,43.06
2023-04-04T06:24:57.309Z,43.64
2023-04-04T06:27:25.699Z,43.79
2023-04-04T06:29:54.030Z,43.07
2023-04-04T06:32:22.755Z,42.48
2023-04-04T06:34:52.530Z,43.13
2023-04-04T06:37:20.883Z,42.31
2023-04-04T06:39:49.304Z,42.66
2023-04-04T06:42:17.671Z,42.97
2023-04-04T06:44:46.045Z,42.33
2023-04-04T06:47:14.600Z,42.46
2023-04-04T06:49:42.899Z,43.00
2023-04-04T06:52:12.542Z,41.62
2023-04-04T06:54:40.861Z,41.47
2023-04-04T06:57:09.153Z,41.53
2023-04-04T06:59:37.516Z,41.58
2023-04-04T07:02:05.950Z,41.67
2023-04-04T07:04:35.352Z,41.29
2023-04-04T07:07:03.681Z,41.81
2023-04-04T07:09:33.440Z,41.11
2023-04-04T07:12:01.806Z,41.87
2023-04-04T07:14:30.055Z,41.33
2023-04-04T07:16:58.731Z,39.77
2023-04-04T07:19:28.848Z,39.54
2023-04-04T07:21:57.518Z,39.18
2023-04-04T07:24:25.860Z,39.12
2023-04-04T07:26:55.537Z,38.96
2023-04-04T07:29:24.028Z,39.32
2023-04-04T07:31:52.382Z,39.25
2023-04-04T07:34:21.270Z,38.55
2023-04-04T07:36:49.646Z,38.36
2023-04-04T07:39:18.098Z,37.36
2023-04-04T07:41:46.713Z,37.32
2023-04-04T07:44:16.458Z,36.20
2023-04-04T07:46:46.369Z,36.35
2023-04-04T07:49:16.242Z,37.23
2023-04-04T07:51:44.728Z,36.58
2023-04-04T07:54:13.046Z,36.44
2023-04-04T07:56:41.317Z,36.90
2023-04-04T07:59:09.680Z,36.31
2023-04-04T08:01:39.400Z,34.99
2023-04-04T08:04:07.767Z,35.25
2023-04-04T08:06:36.935Z,36.35
2023-04-04T08:09:05.334Z,34.57
2023-04-04T08:11:33.737Z,34.69
2023-04-04T08:14:02.094Z,34.54
2023-04-04T08:16:30.398Z,33.53
2023-04-04T08:19:00.744Z,32.11
2023-04-04T08:21:29.106Z,33.43
2023-04-04T08:23:57.426Z,32.73
2023-04-04T08:26:25.737Z,32.45
2023-04-04T08:28:54.578Z,32.36
2023-04-04T08:31:23.605Z,32.08
2023-04-04T08:33:52.485Z,32.63
2023-04-04T08:36:22.477Z,32.74
2023-04-04T08:38:50.828Z,33.20
2023-04-04T08:41:19.556Z,32.31
2023-04-04T08:43:54.337Z,32.86
2023-04-04T08:46:22.958Z,31.81
2023-04-04T08:48:52.616Z,31.74
2023-04-04T08:51:23.874Z,31.75
2023-04-04T08:53:52.365Z,31.09
2023-04-04T08:56:21.816Z,31.56
2023-04-04T08:58:50.193Z,30.46
2023-04-04T09:01:18.714Z,30.26
2023-04-04T09:03:47.175Z,31.50
2023-04-04T09:06:16.248Z,30.79
2023-04-04T09:08:46.458Z,31.36
2023-04-04T09:11:14.940Z,30.80
2023-04-04T09:13:44.670Z,31.54
2023-04-04T09:16:13.524Z,30.17
2023-04-04T09:18:41.990Z,30.59
2023-04-04T09:21:10.704Z,30.69
2023-04-04T09:23:39.707Z,30.61
2023-04-04T09:26:09.330Z,30.11
2023-04-04T09:28:37.666Z,29.96
2023-04-04T09:31:10.124Z,29.18
2023-04-04T09:33:39.834Z,29.09
2023-04-04T09:36:10.273Z,28.89
2023-04-04T09:38:38.969Z,29.52
2023-04-04T09:41:11.126Z,28.65
2023-04-04T09:43:40.841Z,27.94
2023-04-04T09:46:09.199Z,27.09
2023-04-04T09:48:37.747Z,27.46
2023-04-04T09:51:07.497Z,27.75
2023-04-04T09:53:37.814Z,29.08
2023-04-04T09:56:07.546Z,28.72
2023-04-04T09:58:40.449Z,28.69
2023-04-04T10:01:13.934Z,29.24
2023-04-04T10:03:42.388Z,28.89
2023-04-04T10:06:11.291Z,27.47
2023-04-04T10:08:41.513Z,29.14
2023-04-04T10:11:12.256Z,28.58
2023-04-04T10:13:44.613Z,28.87
2023-04-04T10:16:13.535Z,30.22
2023-04-04T10:18:41.884Z,30.22
2023-04-04T10:23:43.937Z,30.25
2023-04-04T10:26:13.227Z,30.38
2023-04-04T10:28:44.260Z,29.61
2023-04-04T10:31:18.582Z,28.91
2023-04-04T10:33:51.745Z,30.37
2023-04-04T10:36:23.075Z,30.31
2023-04-04T10:39:02.445Z,29.36
2023-04-04T10:41:33.446Z,30.04
2023-04-04T10:44:14.602Z,29.48
2023-04-04T10:46:43.465Z,29.04
2023-04-04T10:49:12.479Z,29.58
2023-04-04T10:51:52.972Z,30.12
2023-04-04T10:54:24.572Z,28.40
2023-04-04T10:56:53.487Z,29.43
2023-04-04T10:59:26.202Z,30.21
2023-04-04T11:01:58.546Z,30.89
2023-04-04T11:04:33.023Z,29.00
2023-04-04T11:07:15.067Z,29.77
2023-04-04T11:09:54.440Z,29.07
2023-04-04T11:12:24.393Z,29.06
2023-04-04T11:15:09.788Z,27.19
2023-04-04T11:18:22.252Z,27.91
2023-04-04T11:21:04.271Z,27.07
2023-04-04T11:24:00.989Z,27.98
2023-04-04T11:26:36.890Z,27.43
2023-04-04T11:29:08.099Z,27.30
2023-04-04T11:31:41.441Z,26.75
2023-04-04T11:34:11.466Z,28.33
2023-04-04T11:36:54.931Z,28.18
2023-04-04T11:39:26.837Z,27.07
2023-04-04T11:41:57.352Z,27.50
2023-04-04T11:44:27.676Z,27.32
2023-04-04T11:47:05.307Z,26.90
2023-04-04T11:49:36.354Z,27.13
2023-04-04T11:52:09.009Z,27.53
2023-04-04T11:54:38.810Z,27.99
2023-04-04T11:57:07.497Z,26.90
2023-04-04T11:59:41.246Z,26.16
2023-04-04T12:02:11.449Z,29.25
2023-04-04T12:04:43.483Z,27.15
2023-04-04T12:07:12.656Z,29.09
2023-04-04T12:09:42.223Z,30.00
2023-04-04T12:12:14.414Z,28.64
2023-04-04T12:14:43.211Z,27.78
2023-04-04T12:17:14.371Z,25.88
2023-04-04T12:19:44.432Z,27.58
2023-04-04T12:22:12.729Z,28.00
2023-04-04T12:24:41.353Z,26.99
2023-04-04T12:27:09.784Z,26.31
2023-04-04T12:29:38.233Z,28.18
2023-04-04T12:32:10.720Z,27.21
2023-04-04T12:34:47.037Z,28.73
2023-04-04T12:37:19.621Z,27.92
2023-04-04T12:39:50.008Z,30.31
2023-04-04T12:42:22.560Z,29.41
2023-04-04T12:44:51.950Z,28.96
2023-04-04T12:47:22.465Z,30.05
2023-04-04T12:49:54.774Z,29.68
2023-04-04T12:52:24.445Z,29.27
2023-04-04T12:55:06.798Z,29.92
2023-04-04T12:57:37.001Z,30.03
2023-04-04T13:00:08.925Z,30.53
2023-04-04T13:02:38.714Z,30.11
2023-04-04T13:05:11.131Z,31.35
2023-04-04T13:07:43.509Z,29.74
2023-04-04T13:10:14.648Z,28.35
2023-04-04T13:12:56.776Z,27.07
2023-04-04T13:15:25.546Z,26.91
2023-04-04T13:17:53.977Z,28.58
2023-04-04T13:20:25.787Z,27.68
2023-04-04T13:22:59.564Z,27.37
2023-04-04T13:25:27.999Z,27.34
2023-04-04T13:27:56.599Z,28.31
2023-04-04T13:30:25.158Z,28.31
2023-04-04T13:32:53.448Z,28.75
2023-04-04T13:35:23.217Z,27.81
2023-04-04T13:37:51.482Z,26.88
2023-04-04T13:40:20.282Z,27.97
2023-04-04T13:42:48.636Z,27.57
2023-04-04T13:45:16.961Z,28.49
2023-04-04T13:47:45.492Z,28.20
2023-04-04T13:50:13.896Z,27.56
2023-04-04T13:52:43.621Z,27.42
2023-04-04T13:55:12.064Z,27.85
2023-04-04T13:57:40.552Z,27.16
2023-04-04T14:00:10.276Z,27.00
2023-04-04T14:02:38.802Z,27.37
2023-04-04T14:05:08.202Z,28.05
2023-04-04T14:07:37.742Z,27.44
2023-04-04T14:10:11.241Z,28.04
2023-04-04T14:12:39.607Z,28.57
2023-04-04T14:15:09.144Z,29.35
2023-04-04T14:17:37.958Z,28.86
2023-04-04T14:20:07.949Z,28.72
2023-04-04T14:22:36.347Z,28.53
2023-04-04T14:25:05.256Z,28.15
2023-04-04T14:27:35.274Z,27.91
2023-04-04T14:30:04.024Z,28.25
2023-04-04T14:32:35.033Z,27.51
2023-04-04T14:35:03.616Z,27.84
2023-04-04T14:37:31.840Z,28.40
2023-04-04T14:40:00.357Z,27.21
2023-04-04T14:42:28.626Z,26.18
2023-04-04T14:44:58.650Z,26.38
2023-04-04T14:47:26.934Z,26.85
2023-04-04T14:49:55.998Z,28.38
2023-04-04T14:52:24.298Z,29.05
2023-04-04T14:54:52.550Z,28.91
2023-04-04T14:57:21.067Z,28.42
2023-04-04T14:59:49.335Z,29.60
2023-04-04T15:02:18.962Z,27.86
2023-04-04T15:04:47.350Z,27.36
2023-04-04T15:07:15.805Z,27.96
2023-04-04T15:09:44.086Z,27.37
2023-04-04T15:12:12.325Z,26.81
2023-04-04T15:14:40.738Z,25.82
2023-04-04T15:17:08.963Z,25.79
2023-04-04T15:19:38.589Z,26.21
2023-04-04T15:22:06.832Z,27.04
2023-04-04T15:24:35.131Z,26.44
2023-04-04T15:27:03.448Z,26.78
2023-04-04T15:29:31.724Z,27.13
2023-04-04T15:32:00.118Z,27.38
2023-04-04T15:34:28.361Z,27.38
2023-04-04T15:37:02.557Z,27.36
2023-04-04T15:39:33.016Z,28.04
2023-04-04T15:42:03.225Z,28.11
2023-04-04T15:44:31.818Z,28.79
2023-04-04T15:47:00.140Z,28.56
2023-04-04T15:49:28.947Z,28.11
2023-04-04T15:51:58.596Z,28.04
2023-04-04T15:54:28.905Z,28.86
2023-04-04T15:56:57.306Z,28.23
2023-04-04T15:59:25.753Z,28.23
2023-04-04T16:01:54.159Z,27.12
2023-04-04T16:04:22.437Z,27.16
2023-04-04T16:06:50.696Z,27.58
2023-04-04T16:09:21.462Z,27.45
2023-04-04T16:11:49.931Z,27.03
2023-04-04T16:14:18.215Z,26.83
2023-04-04T16:16:46.525Z,28.30
2023-04-04T16:19:16.953Z,27.56
2023-04-04T16:21:45.494Z,27.90
2023-04-04T16:24:14.105Z,28.09
2023-04-04T16:26:47.165Z,28.28
2023-04-04T16:29:15.741Z,27.95
2023-04-04T16:31:44.187Z,27.32
2023-04-04T16:34:12.517Z,28.08
2023-04-04T16:36:40.843Z,27.99
2023-04-04T16:39:09.138Z,28.12
2023-04-04T16:41:40.761Z,28.29
2023-04-04T16:44:12.324Z,28.26
2023-04-04T16:46:40.760Z,28.65
2023-04-04T16:49:09.881Z,28.57
2023-04-04T16:51:38.172Z,28.36
2023-04-04T16:54:06.520Z,28.11
2023-04-04T16:56:34.776Z,28.94
2023-04-04T16:59:03.147Z,29.53
2023-04-04T17:01:32.871Z,29.30
2023-04-04T17:04:01.400Z,29.04
2023-04-04T17:06:29.737Z,29.10
2023-04-04T17:08:58.109Z,28.43
2023-04-04T17:11:26.421Z,28.86
2023-04-04T17:13:54.774Z,28.67
2023-04-04T17:16:23.951Z,29.49
2023-04-04T17:18:54.337Z,29.85
2023-04-04T17:21:22.760Z,29.26
2023-04-04T17:23:50.983Z,28.94
2023-04-04T17:26:19.284Z,28.58
2023-04-04T17:28:47.539Z,28.21
2023-04-04T17:31:16.931Z,28.68
2023-04-04T17:33:45.647Z,28.71
2023-04-04T17:36:15.296Z,28.53
2023-04-04T17:38:43.553Z,27.97
2023-04-04T17:41:12.186Z,28.37
2023-04-04T17:43:40.445Z,28.40
2023-04-04T17:46:09.222Z,28.56
2023-04-04T17:48:37.866Z,28.69
2023-04-04T17:51:08.377Z,29.14
2023-04-04T17:53:37.982Z,28.92
2023-04-04T17:56:06.355Z,29.06
2023-04-04T17:58:34.597Z,29.50
2023-04-04T18:01:03.416Z,29.61
2023-04-04T18:03:32.186Z,29.61
2023-04-04T18:06:01.332Z,29.78
2023-04-04T18:08:29.607Z,29.91
2023-04-04T18:10:59.880Z,30.55
2023-04-04T18:13:28.176Z,30.42
2023-04-04T18:15:56.445Z,31.02
2023-04-04T18:18:24.871Z,30.89
2023-04-04T18:20:54.678Z,31.10
2023-04-04T18:23:24.197Z,31.39
2023-04-04T18:25:52.528Z,31.42
2023-04-04T18:28:22.131Z,32.19
2023-04-04T18:30:50.443Z,32.44
2023-04-04T18:33:19.447Z,33.07
2023-04-04T18:35:47.755Z,33.41
2023-04-04T18:38:16.179Z,33.37
2023-04-04T18:40:45.657Z,33.78
2023-04-04T18:43:14.193Z,35.13
2023-04-04T18:45:43.978Z,35.02
2023-04-04T18:48:12.835Z,34.44
2023-04-04T18:50:41.844Z,35.77
2023-04-04T18:53:10.457Z,35.86
2023-04-04T18:55:38.719Z,36.85
2023-04-04T18:58:07.019Z,36.06
2023-04-04T19:00:35.415Z,36.11
2023-04-04T19:03:07.648Z,35.98
2023-04-04T19:05:37.858Z,36.59
2023-04-04T19:08:08.376Z,37.29
2023-04-04T19:10:37.266Z,37.03
2023-04-04T19:13:05.689Z,36.61
2023-04-04T19:15:34.828Z,36.20
2023-04-04T19:18:03.313Z,36.39
2023-04-04T19:20:33.006Z,37.04
2023-04-04T19:23:01.320Z,37.98
2023-04-04T19:25:29.680Z,38.63
2023-04-04T19:27:57.957Z,38.26
2023-04-04T19:30:42.890Z,37.79
2023-04-04T19:33:12.244Z,37.84
2023-04-04T19:35:53.697Z,37.26
2023-04-04T19:38:24.678Z,38.50
2023-04-04T19:40:55.503Z,41.17
2023-04-04T19:43:24.552Z,40.42
2023-04-04T19:48:39.270Z,40.19
2023-04-04T19:51:11.044Z,39.59
2023-04-04T19:53:39.542Z,39.02
2023-04-04T19:56:09.676Z,38.74
2023-04-04T19:58:38.335Z,39.31
2023-04-04T20:01:07.809Z,39.18
2023-04-04T20:03:37.779Z,39.02
2023-04-04T20:06:11.618Z,39.43
2023-04-04T20:08:44.042Z,40.40
2023-04-04T20:11:13.523Z,39.90
2023-04-04T20:13:42.332Z,40.01
2023-04-04T20:16:14.448Z,39.84
2023-04-04T20:18:44.328Z,39.18
2023-04-04T20:21:15.776Z,40.08
2023-04-04T20:23:46.642Z,40.13
2023-04-04T20:26:47.170Z,39.71
2023-04-04T20:29:16.971Z,40.12
2023-04-04T20:31:46.793Z,38.70
2023-04-04T20:34:36.399Z,38.40
2023-04-04T20:37:08.346Z,38.06
2023-04-04T20:39:43.805Z,40.41
2023-04-04T20:42:35.291Z,41.91
2023-04-04T20:45:38.813Z,39.17
2023-04-04T20:48:07.909Z,39.55
2023-04-04T20:50:47.360Z,39.81
2023-04-04T20:53:20.538Z,41.94
2023-04-04T20:55:50.535Z,41.59
2023-04-04T20:58:27.868Z,41.15
2023-04-04T21:00:57.885Z,40.46
2023-04-04T21:03:31.956Z,40.14
2023-04-04T21:06:03.723Z,39.68
2023-04-04T21:08:42.994Z,39.50
2023-04-04T21:11:12.196Z,40.16
2023-04-04T21:13:43.068Z,40.29
2023-04-04T21:16:13.562Z,40.25
2023-04-04T21:18:41.928Z,39.52
2023-04-04T21:21:12.745Z,39.95
2023-04-04T21:23:53.666Z,40.07
2023-04-04T21:26:33.014Z,39.58
2023-04-04T21:29:03.454Z,39.17
2023-04-04T21:31:37.048Z,39.28
2023-04-04T21:34:10.243Z,39.63
2023-04-04T21:36:38.930Z,39.63
2023-04-04T21:39:11.927Z,38.98
2023-04-04T21:41:40.450Z,39.53
2023-04-04T21:44:10.477Z,39.67
2023-04-04T21:46:39.785Z,39.96
2023-04-04T21:49:09.488Z,40.39
2023-04-04T21:51:37.890Z,39.68
2023-04-04T21:54:07.836Z,38.92
2023-04-04T21:56:38.104Z,39.04
2023-04-04T21:59:08.326Z,39.11
2023-04-04T22:01:37.189Z,39.17
2023-04-04T22:04:05.666Z,40.90
2023-04-04T22:06:34.016Z,40.90
2023-04-04T22:09:03.110Z,40.63
2023-04-04T22:11:34.733Z,40.52
2023-04-04T22:14:06.995Z,40.72
2023-04-04T22:16:39.093Z,40.24
2023-04-04T22:19:10.998Z,41.46
2023-04-04T22:21:46.794Z,40.97
2023-04-04T22:24:15.601Z,40.91
2023-04-04T22:26:46.016Z,41.21
2023-04-04T22:29:14.279Z,40.50
2023-04-04T22:31:42.593Z,43.17
2023-04-04T22:34:13.283Z,43.18
2023-04-04T22:36:43.825Z,42.98
2023-04-04T22:39:15.869Z,42.52
2023-04-04T22:41:45.921Z,42.94
2023-04-04T22:44:14.232Z,42.42
2023-04-04T22:46:42.540Z,42.22
2023-04-04T22:49:11.017Z,41.84
2023-04-04T22:51:45.735Z,40.98
2023-04-04T22:54:15.582Z,41.25
2023-04-04T22:56:45.419Z,40.52
2023-04-04T22:59:13.920Z,41.90
2023-04-04T23:01:42.267Z,41.32
2023-04-04T23:04:10.791Z,42.03
2023-04-04T23:06:39.292Z,42.04
2023-04-04T23:09:08.806Z,41.58
2023-04-04T23:11:38.363Z,41.40
2023-04-04T23:14:09.607Z,41.33
2023-04-04T23:16:38.389Z,41.75
2023-04-04T23:19:06.704Z,41.92
2023-04-04T23:21:35.051Z,41.67
2023-04-04T23:24:03.567Z,41.73
2023-04-04T23:26:32.609Z,41.82
2023-04-04T23:29:01.307Z,42.45
2023-04-04T23:31:31.248Z,43.23
2023-04-04T23:33:59.848Z,43.04
2023-04-04T23:36:28.199Z,42.81
2023-04-04T23:38:56.619Z,42.77
2023-04-04T23:41:24.881Z,42.74
2023-04-04T23:43:54.402Z,42.77
2023-04-04T23:46:22.704Z,43.17
2023-04-04T23:48:52.378Z,43.10
2023-04-04T23:51:21.406Z,43.08
2023-04-04T23:53:49.711Z,42.91
2023-04-04T23:56:18.050Z,43.90
2023-04-04T23:58:46.391Z,45.30
